Time;durP1;ratioP1;P1;durP2;ratioP2;P2;SDS_P1;SDS_P2;PMS_P1;PMS_P2;Temp;Humidity;BMP_temperature;BMP_pressure;BME280_temperature;BME280_humidity;BME280_pressure;Samples;Min_cycle;Max_cycle;Signal;HPM_P1;HPM_P2
2021/09/25 00:00:10;;;;;;;7.97;7.13;;;;;;;16.44;78.65;96487.06;4974200;28;20424;-59
2021/09/25 00:02:36;;;;;;;7.97;7.27;;;;;;;16.52;78.42;96477.03;4973913;28;20940;-55
2021/09/25 00:05:03;;;;;;;8.33;7.63;;;;;;;16.49;78.34;96469.59;4974390;28;20452;-54
2021/09/25 00:07:29;;;;;;;9.00;7.30;;;;;;;16.50;78.29;96471.19;4974657;28;20519;-57
2021/09/25 00:09:54;;;;;;;8.80;6.80;;;;;;;16.47;78.54;96469.84;4974464;28;20461;-54
2021/09/25 00:12:19;;;;;;;7.67;6.97;;;;;;;16.48;78.61;96471.47;4974433;28;20221;-59
2021/09/25 00:14:45;;;;;;;6.87;6.27;;;;;;;16.40;78.22;96470.06;4973992;28;20540;-54
2021/09/25 00:17:12;;;;;;;8.47;7.37;;;;;;;16.38;78.37;96474.03;4974314;28;20526;-57
2021/09/25 00:19:41;;;;;;;8.27;7.53;;;;;;;16.30;78.54;96471.88;4974187;28;20261;-57
2021/09/25 00:22:07;;;;;;;7.43;6.83;;;;;;;16.28;78.71;96471.34;4974229;28;20461;-54
2021/09/25 00:24:33;;;;;;;7.67;6.97;;;;;;;16.24;78.78;96471.06;4973789;28;20433;-57
2021/09/25 00:26:59;;;;;;;8.70;6.90;;;;;;;16.16;79.61;96473.41;4974324;28;20410;-54
2021/09/25 00:29:24;;;;;;;17.40;9.40;;;;;;;16.19;79.83;96470.22;4977737;28;20418;-54
2021/09/25 00:31:50;;;;;;;6.83;6.23;;;;;;;16.22;79.45;96467.88;4977697;28;20573;-57
2021/09/25 00:34:16;;;;;;;9.20;8.07;;;;;;;16.27;79.08;96470.53;4977365;28;20174;-54
2021/09/25 00:36:41;;;;;;;7.90;7.20;;;;;;;16.26;79.41;96468.13;4977393;28;20665;-58
2021/09/25 00:39:07;;;;;;;7.97;7.13;;;;;;;16.24;79.56;96476.34;4977541;28;21010;-59
2021/09/25 00:41:32;;;;;;;8.47;7.50;;;;;;;16.24;79.53;96465.75;4977497;28;20209;-58
2021/09/25 00:43:58;;;;;;;8.33;7.53;;;;;;;16.25;79.77;96471.88;4977058;28;20278;-57
2021/09/25 00:46:24;;;;;;;11.13;7.50;;;;;;;16.22;79.76;96472.34;4977423;28;20241;-57
2021/09/25 00:48:50;;;;;;;7.90;7.10;;;;;;;16.20;79.68;96472.63;4977321;28;20174;-54
2021/09/25 00:51:17;;;;;;;7.80;6.93;;;;;;;16.14;80.05;96473.63;4977656;28;20201;-54
2021/09/25 00:53:43;;;;;;;8.67;7.77;;;;;;;16.03;81.94;96482.59;4976971;28;20501;-57
2021/09/25 00:56:09;;;;;;;8.70;7.90;;;;;;;16.12;81.92;96475.78;4977306;28;20437;-54
2021/09/25 00:58:39;;;;;;;9.27;8.33;;;;;;;15.99;82.80;96478.88;4977103;28;20781;-57
2021/09/25 01:01:05;;;;;;;10.30;8.03;;;;;;;15.68;84.01;96476.28;4977476;28;20463;-57
2021/09/25 01:03:31;;;;;;;10.43;8.17;;;;;;;15.76;83.55;96471.28;4976567;28;20823;-54
2021/09/25 01:05:56;;;;;;;7.87;7.00;;;;;;;15.81;83.54;96471.34;4977137;28;20487;-54
2021/09/25 01:08:25;;;;;;;8.90;8.00;;;;;;;15.76;83.84;96471.28;4977139;28;20169;-57
2021/09/25 01:10:54;;;;;;;9.80;8.90;;;;;;;15.88;83.35;96471.13;4977063;28;20249;-57
2021/09/25 01:13:21;;;;;;;10.53;8.70;;;;;;;15.90;83.27;96469.00;4976592;28;20411;-57
2021/09/25 01:15:47;;;;;;;9.33;8.50;;;;;;;16.10;82.34;96467.28;4976908;28;20475;-54
2021/09/25 01:18:15;;;;;;;9.13;8.03;;;;;;;16.15;82.36;96469.94;4976883;28;20776;-57
2021/09/25 01:20:40;;;;;;;8.70;7.80;;;;;;;16.24;81.89;96465.75;4976937;28;20409;-57
2021/09/25 01:23:06;;;;;;;12.23;8.73;;;;;;;16.33;81.46;96463.41;4976394;28;20453;-57
2021/09/25 01:25:32;;;;;;;8.37;7.60;;;;;;;16.39;80.76;96473.78;4976678;28;20312;-57
2021/09/25 01:27:59;;;;;;;8.83;7.93;;;;;;;16.24;80.75;96459.66;4976784;28;20668;-57
2021/09/25 01:30:24;;;;;;;9.03;7.70;;;;;;;16.23;81.09;96466.78;4976494;28;20410;-57
2021/09/25 01:32:50;;;;;;;8.93;8.03;;;;;;;16.34;79.99;96460.47;4976471;28;20402;-57
2021/09/25 01:35:18;;;;;;;7.97;7.27;;;;;;;16.36;80.82;96462.88;4976465;28;20241;-54
2021/09/25 01:37:46;;;;;;;7.80;7.10;;;;;;;16.34;80.90;96457.81;4975192;28;20426;-58
2021/09/25 01:40:12;;;;;;;8.70;7.90;;;;;;;16.41;80.43;96463.69;4976458;28;20402;-54
2021/09/25 01:42:38;;;;;;;7.43;6.83;;;;;;;16.34;79.98;96465.00;4976534;28;20548;-57
2021/09/25 01:45:05;;;;;;;10.80;9.80;;;;;;;16.34;79.80;96468.44;4976235;28;20505;-54
2021/09/25 01:47:30;;;;;;;10.20;9.30;;;;;;;16.32;79.74;96478.50;4976322;28;20501;-58
2021/09/25 01:49:59;;;;;;;8.70;7.80;;;;;;;16.23;80.19;96469.44;4976261;28;20417;-54
2021/09/25 01:52:25;;;;;;;10.73;7.20;;;;;;;16.16;80.28;96479.50;4976527;28;20513;-54
2021/09/25 01:54:50;;;;;;;8.37;7.57;;;;;;;16.31;80.17;96474.28;4975877;28;20440;-54
2021/09/25 01:57:16;;;;;;;7.80;6.50;;;;;;;16.21;80.67;96474.22;4975992;28;20587;-54
2021/09/25 01:59:41;;;;;;;8.17;7.47;;;;;;;16.22;80.76;96469.72;4975980;28;20174;-59
2021/09/25 02:02:07;;;;;;;7.83;7.13;;;;;;;16.13;81.30;96469.41;4976248;28;20194;-54
2021/09/25 02:04:35;;;;;;;7.30;6.60;;;;;;;16.23;80.95;96466.00;4975552;28;20518;-59
2021/09/25 02:07:00;;;;;;;7.93;7.13;;;;;;;16.04;82.09;96475.44;4975806;28;20420;-57
2021/09/25 02:09:25;;;;;;;8.53;7.17;;;;;;;15.95;82.45;96464.53;4976033;28;20405;-54
2021/09/25 02:11:51;;;;;;;7.43;6.73;;;;;;;15.90;82.76;96467.16;4975878;28;20166;-54
2021/09/25 02:14:16;;;;;;;7.63;6.93;;;;;;;16.01;82.29;96466.16;4975369;28;20186;-54
2021/09/25 02:16:41;;;;;;;8.07;7.27;;;;;;;15.98;82.30;96476.50;4975712;28;20198;-54
2021/09/25 02:19:07;;;;;;;8.30;7.50;;;;;;;15.98;82.23;96476.50;4975750;28;20220;-57
2021/09/25 02:21:32;;;;;;;9.40;7.37;;;;;;;15.92;82.54;96474.84;4975534;28;20174;-57
2021/09/25 02:23:58;;;;;;;10.27;7.37;;;;;;;15.87;82.48;96477.47;4975255;28;20174;-57
2021/09/25 02:26:23;;;;;;;7.90;7.10;;;;;;;15.94;82.34;96478.81;4975396;28;20669;-54
2021/09/25 02:28:48;;;;;;;8.57;7.77;;;;;;;16.03;81.81;96481.81;4975683;28;20187;-57
2021/09/25 02:31:16;;;;;;;8.97;7.60;;;;;;;16.04;81.58;96481.56;4975451;28;20181;-57
2021/09/25 02:33:41;;;;;;;8.00;7.20;;;;;;;16.12;81.39;96483.72;4975144;28;20178;-54
2021/09/25 02:36:07;;;;;;;8.67;7.80;;;;;;;16.24;80.60;96471.06;4975374;28;20997;-54
2021/09/25 02:38:32;;;;;;;7.80;7.00;;;;;;;16.26;80.83;96476.09;4975868;28;20189;-58
2021/09/25 02:40:58;;;;;;;7.10;6.40;;;;;;;16.35;80.26;96472.69;4975258;28;20177;-58
2021/09/25 02:43:23;;;;;;;8.30;7.50;;;;;;;16.25;79.92;96477.16;4975373;28;20552;-54
2021/09/25 02:45:48;;;;;;;9.67;8.00;;;;;;;16.24;79.30;96472.91;4975336;28;20198;-54
2021/09/25 02:48:14;;;;;;;9.83;8.50;;;;;;;16.21;79.59;96460.97;4975071;28;20537;-54
2021/09/25 02:50:40;;;;;;;9.20;7.90;;;;;;;16.02;80.11;96454.50;4974760;28;20644;-57
2021/09/25 02:53:05;;;;;;;7.20;6.50;;;;;;;16.13;79.43;96453.50;4974875;28;20170;-54
2021/09/25 02:55:30;;;;;;;8.20;7.40;;;;;;;16.13;79.52;96448.19;4973863;28;20197;-54
2021/09/25 02:57:56;;;;;;;7.50;6.80;;;;;;;16.17;79.43;96448.47;4975015;28;20178;-54
2021/09/25 03:00:22;;;;;;;7.00;6.30;;;;;;;16.22;79.27;96449.31;4975448;28;20178;-54
2021/09/25 03:02:48;;;;;;;7.10;6.40;;;;;;;16.28;78.88;96442.16;4974712;28;20202;-54
2021/09/25 03:05:13;;;;;;;7.60;6.90;;;;;;;16.39;78.41;96430.53;4974869;28;20928;-57
2021/09/25 03:07:39;;;;;;;8.20;6.43;;;;;;;16.40;78.18;96434.78;4975073;28;20178;-54
2021/09/25 03:10:07;;;;;;;7.53;6.90;;;;;;;16.38;78.18;96431.59;4974985;28;20652;-57
2021/09/25 03:12:33;;;;;;;7.23;6.53;;;;;;;16.35;78.04;96445.38;4974751;28;20408;-54
2021/09/25 03:14:59;;;;;;;7.07;6.47;;;;;;;16.36;77.68;96445.09;4974408;28;20480;-54
2021/09/25 03:17:24;;;;;;;12.83;7.23;;;;;;;16.34;77.50;96443.78;4974987;28;20430;-54
2021/09/25 03:19:49;;;;;;;6.80;6.13;;;;;;;16.26;77.69;96442.44;4974907;28;20174;-54
2021/09/25 03:22:15;;;;;;;7.20;6.17;;;;;;;16.28;77.36;96442.16;4974555;28;20275;-58
2021/09/25 03:24:42;;;;;;;7.10;6.47;;;;;;;16.25;77.44;96440.81;4974170;28;20189;-54
2021/09/25 03:27:08;;;;;;;7.10;6.50;;;;;;;16.23;77.47;96436.84;4974540;28;20410;-57
2021/09/25 03:29:33;;;;;;;8.23;6.47;;;;;;;16.20;77.57;96437.34;4974568;28;20556;-52
2021/09/25 03:31:58;;;;;;;7.43;6.50;;;;;;;16.22;77.11;96433.38;4974675;28;20193;-57
2021/09/25 03:34:24;;;;;;;7.60;6.50;;;;;;;16.20;77.10;96440.81;4974367;28;20242;-52
2021/09/25 03:36:49;;;;;;;9.73;6.67;;;;;;;16.16;76.96;96431.00;4974596;28;20177;-56
2021/09/25 03:39:15;;;;;;;10.63;7.20;;;;;;;16.08;77.08;96442.06;4974673;28;20166;-52
2021/09/25 03:41:40;;;;;;;9.30;6.63;;;;;;;16.07;77.00;96438.63;4974657;28;20228;-52
2021/09/25 03:44:05;;;;;;;6.93;6.23;;;;;;;16.03;77.11;96442.81;4974176;28;20170;-55
2021/09/25 03:46:31;;;;;;;8.17;7.27;;;;;;;15.94;77.43;96433.78;4974465;28;20189;-52
2021/09/25 03:48:57;;;;;;;7.50;6.40;;;;;;;15.88;77.73;96436.66;4974582;28;20576;-52
2021/09/25 03:51:22;;;;;;;7.43;6.73;;;;;;;15.90;77.66;96434.56;4974565;28;20225;-52
2021/09/25 03:53:47;;;;;;;11.80;7.37;;;;;;;15.90;77.81;96435.38;4974120;28;20656;-52
2021/09/25 03:56:13;;;;;;;8.17;7.37;;;;;;;15.85;78.09;96432.66;4974466;28;20224;-55
2021/09/25 03:58:40;;;;;;;9.00;6.70;;;;;;;15.85;77.93;96431.88;4974509;28;20185;-56
2021/09/25 04:01:06;;;;;;;7.77;6.70;;;;;;;15.81;78.36;96438.75;4974408;28;20178;-55
2021/09/25 04:03:31;;;;;;;7.90;7.17;;;;;;;15.76;78.39;96436.84;4976421;28;20947;-55
2021/09/25 04:05:58;;;;;;;8.70;7.87;;;;;;;15.79;78.73;96432.91;4978072;28;20430;-52
2021/09/25 04:08:24;;;;;;;10.40;7.23;;;;;;;15.85;78.33;96432.66;4978044;28;20181;-52
2021/09/25 04:10:50;;;;;;;15.57;7.93;;;;;;;15.81;78.74;96430.78;4978003;28;20461;-56
2021/09/25 04:13:15;;;;;;;7.33;6.60;;;;;;;15.79;78.18;96427.59;4977765;28;20406;-56
2021/09/25 04:15:40;;;;;;;11.27;7.00;;;;;;;15.78;78.20;96433.97;4977960;28;20213;-55
2021/09/25 04:18:08;;;;;;;9.03;6.87;;;;;;;15.72;78.29;96433.13;4978037;28;20622;-55
2021/09/25 04:20:33;;;;;;;7.07;6.47;;;;;;;15.70;77.91;96431.78;4977977;28;20171;-52
2021/09/25 04:22:59;;;;;;;7.60;6.90;;;;;;;15.66;77.91;96433.34;4977466;28;20456;-55
2021/09/25 04:25:30;;;;;;;7.60;6.80;;;;;;;15.70;77.73;96437.09;4978315;28;20208;-55
2021/09/25 04:27:55;;;;;;;8.00;7.20;;;;;;;15.65;77.86;96434.41;4977951;28;20166;-52
2021/09/25 04:30:21;;;;;;;7.30;6.60;;;;;;;15.55;78.26;96427.19;4977711;28;20417;-57
2021/09/25 04:32:46;;;;;;;8.30;7.60;;;;;;;15.50;78.15;96437.75;4977382;28;20158;-52
2021/09/25 04:35:12;;;;;;;8.03;7.07;;;;;;;15.48;78.27;96441.69;4977672;28;20265;-52
2021/09/25 04:37:37;;;;;;;9.40;8.10;;;;;;;15.48;78.33;96447.81;4977522;28;20190;-55
2021/09/25 04:40:03;;;;;;;6.37;5.77;;;;;;;15.43;79.33;96437.19;4977503;28;20171;-55
2021/09/25 04:42:29;;;;;;;7.50;6.80;;;;;;;15.41;79.44;96444.56;4977559;28;20210;-52
2021/09/25 04:44:55;;;;;;;6.77;6.17;;;;;;;15.39;79.32;96446.63;4977060;28;20434;-52
2021/09/25 04:47:20;;;;;;;8.23;7.13;;;;;;;15.39;79.34;96447.44;4977495;28;20501;-52
2021/09/25 04:49:45;;;;;;;8.13;7.43;;;;;;;15.38;79.52;96453.00;4977548;28;20229;-52
2021/09/25 04:52:11;;;;;;;6.77;6.17;;;;;;;15.43;79.63;96447.78;4977379;28;20170;-55
2021/09/25 04:54:36;;;;;;;6.30;5.60;;;;;;;15.37;80.27;96444.25;4977008;28;20213;-52
2021/09/25 04:57:02;;;;;;;7.13;6.43;;;;;;;15.27;81.26;96449.44;4977364;28;20198;-57
2021/09/25 04:59:27;;;;;;;7.00;5.83;;;;;;;15.27;81.47;96438.09;4977269;28;20174;-54
2021/09/25 05:01:53;;;;;;;6.77;6.17;;;;;;;15.15;82.22;96440.88;4977339;28;20225;-54
2021/09/25 05:04:18;;;;;;;7.20;6.43;;;;;;;15.25;82.13;96446.25;4976717;28;20641;-57
2021/09/25 05:06:45;;;;;;;6.57;6.00;;;;;;;15.17;82.42;96454.69;4977094;28;20202;-57
2021/09/25 05:09:10;;;;;;;7.50;6.17;;;;;;;15.26;81.98;96452.34;4977197;28;20209;-59
2021/09/25 05:11:36;;;;;;;6.70;6.13;;;;;;;15.30;81.63;96440.22;4976944;28;20441;-54
2021/09/25 05:14:02;;;;;;;6.30;5.70;;;;;;;15.44;80.93;96438.75;4976204;28;20229;-57
2021/09/25 05:16:27;;;;;;;6.13;5.57;;;;;;;15.43;80.73;96426.59;4976717;28;20693;-54
2021/09/25 05:18:53;;;;;;;6.03;5.53;;;;;;;15.51;80.74;96433.25;4976883;28;20505;-54
2021/09/25 05:21:18;;;;;;;6.20;5.63;;;;;;;15.32;81.07;96440.75;4976914;28;20178;-57
2021/09/25 05:23:44;;;;;;;5.70;5.20;;;;;;;15.32;81.39;96443.41;4976337;28;20209;-54
2021/09/25 05:26:09;;;;;;;6.90;5.53;;;;;;;15.39;80.98;96441.34;4976824;28;20210;-54
2021/09/25 05:28:35;;;;;;;6.37;5.77;;;;;;;15.50;80.42;96436.94;4976730;28;20261;-54
2021/09/25 05:31:01;;;;;;;6.13;5.40;;;;;;;15.63;79.93;96434.66;4976731;28;20170;-57
2021/09/25 05:33:26;;;;;;;6.37;5.77;;;;;;;15.74;80.04;96438.97;4976321;28;20166;-57
2021/09/25 05:35:51;;;;;;;12.87;6.70;;;;;;;15.82;79.84;96435.84;4976457;28;20729;-57
2021/09/25 05:38:17;;;;;;;8.33;5.77;;;;;;;15.91;79.78;96433.50;4976432;28;20186;-57
2021/09/25 05:40:42;;;;;;;10.50;6.20;;;;;;;16.01;79.37;96430.91;4976820;28;20197;-54
2021/09/25 05:43:07;;;;;;;6.70;6.10;;;;;;;16.05;79.36;96429.34;4976124;28;20660;-54
2021/09/25 05:45:33;;;;;;;5.40;4.90;;;;;;;16.05;78.97;96435.41;4976464;28;20198;-57
2021/09/25 05:47:58;;;;;;;7.43;6.37;;;;;;;16.05;78.48;96427.47;4976465;28;20173;-54
2021/09/25 05:50:23;;;;;;;8.83;5.60;;;;;;;16.06;78.57;96429.09;4976353;28;20178;-54
2021/09/25 05:52:49;;;;;;;7.70;5.60;;;;;;;16.11;78.52;96437.06;4975829;28;20170;-57
2021/09/25 05:55:16;;;;;;;13.37;6.83;;;;;;;16.10;78.89;96434.66;4976076;28;20671;-54
2021/09/25 05:57:44;;;;;;;8.23;5.63;;;;;;;16.18;78.56;96444.75;4976291;28;20178;-57
2021/09/25 06:00:10;;;;;;;9.53;6.33;;;;;;;16.19;78.43;96444.53;4976068;28;20410;-59
2021/09/25 06:02:42;;;;;;;7.90;5.40;;;;;;;16.14;78.93;96449.00;4975666;28;20500;-55
2021/09/25 06:05:09;;;;;;;7.53;5.60;;;;;;;16.12;78.95;96441.31;4975870;28;20509;-57
2021/09/25 06:07:35;;;;;;;8.80;5.50;;;;;;;16.13;79.18;96442.91;4976066;28;20414;-54
2021/09/25 06:10:00;;;;;;;7.80;6.50;;;;;;;16.18;79.15;96447.41;4976031;28;20432;-54
2021/09/25 06:12:26;;;;;;;7.63;6.50;;;;;;;16.08;79.21;96450.84;4975673;28;20777;-57
2021/09/25 06:14:53;;;;;;;7.03;6.33;;;;;;;16.05;79.33;96448.69;4975524;28;20202;-54
2021/09/25 06:17:22;;;;;;;11.07;6.60;;;;;;;15.98;79.63;96450.75;4975886;28;20230;-54
2021/09/25 06:19:47;;;;;;;7.83;7.13;;;;;;;16.06;79.51;96450.28;4975860;28;20417;-57
2021/09/25 06:22:13;;;;;;;11.70;6.80;;;;;;;16.06;79.43;96441.53;4975724;28;20549;-54
2021/09/25 06:24:38;;;;;;;8.73;6.30;;;;;;;16.08;79.43;96450.03;4974840;28;20170;-54
2021/09/25 06:27:04;;;;;;;7.23;6.50;;;;;;;16.18;79.00;96436.81;4975360;28;20184;-54
2021/09/25 06:29:29;;;;;;;8.73;7.40;;;;;;;16.26;78.90;96445.09;4975540;28;20200;-54
2021/09/25 06:31:55;;;;;;;9.30;7.13;;;;;;;16.32;79.22;96430.75;4975643;28;20594;-57
2021/09/25 06:34:22;;;;;;;8.33;6.90;;;;;;;16.31;79.63;96444.28;4974905;28;20188;-54
2021/09/25 06:36:48;;;;;;;6.83;6.00;;;;;;;16.26;79.85;96444.28;4975315;28;20208;-54
2021/09/25 06:39:13;;;;;;;7.10;6.13;;;;;;;16.19;79.95;96447.19;4975448;28;20418;-59
2021/09/25 06:41:39;;;;;;;7.30;6.60;;;;;;;16.29;80.02;96443.75;4975530;28;20202;-57
2021/09/25 06:44:04;;;;;;;6.90;6.30;;;;;;;16.24;79.39;96449.84;4974854;28;20393;-57
2021/09/25 06:46:30;;;;;;;6.97;6.07;;;;;;;16.28;79.59;96450.94;4975175;28;20201;-59
2021/09/25 06:48:55;;;;;;;6.47;5.87;;;;;;;16.37;79.43;96453.88;4975306;28;20189;-54
2021/09/25 06:51:21;;;;;;;6.23;5.63;;;;;;;16.43;79.75;96443.00;4975398;28;20201;-57
2021/09/25 06:53:47;;;;;;;7.73;6.80;;;;;;;16.40;79.30;96446.19;4974781;28;20498;-57
2021/09/25 06:56:12;;;;;;;9.50;5.93;;;;;;;16.58;79.29;96447.59;4975171;28;20441;-57
2021/09/25 06:58:38;;;;;;;6.03;5.47;;;;;;;16.67;78.48;96443.38;4975139;28;20625;-54
2021/09/25 07:01:03;;;;;;;5.53;4.80;;;;;;;16.65;77.89;96458.00;4975185;28;20170;-54
2021/09/25 07:03:29;;;;;;;5.30;4.90;;;;;;;16.38;78.13;96455.44;4974539;28;20186;-54
2021/09/25 07:05:54;;;;;;;7.47;5.70;;;;;;;16.61;77.90;96446.28;4974854;28;20213;-54
2021/09/25 07:08:19;;;;;;;6.17;5.57;;;;;;;16.70;78.08;96456.16;4974977;28;20169;-57
2021/09/25 07:10:46;;;;;;;6.57;5.00;;;;;;;16.83;77.27;96450.31;4975130;28;20538;-57
2021/09/25 07:13:11;;;;;;;5.23;4.73;;;;;;;16.87;76.31;96453.25;4974552;28;20166;-57
2021/09/25 07:15:36;;;;;;;5.20;4.80;;;;;;;16.86;75.75;96449.00;4974943;28;20786;-57
2021/09/25 07:18:02;;;;;;;5.10;4.60;;;;;;;16.96;75.91;96449.81;4974898;28;20181;-54
2021/09/25 07:20:28;;;;;;;5.43;5.03;;;;;;;17.08;75.62;96457.53;4974709;28;20229;-54
2021/09/25 07:22:54;;;;;;;6.17;4.77;;;;;;;17.18;75.20;96454.88;4974345;28;20304;-57
2021/09/25 07:25:21;;;;;;;5.27;4.77;;;;;;;17.27;75.39;96466.56;4974804;28;20959;-54
2021/09/25 07:27:46;;;;;;;7.07;4.77;;;;;;;17.21;74.63;96473.75;4974664;28;20192;-54
2021/09/25 07:30:12;;;;;;;5.20;4.80;;;;;;;17.31;74.35;96470.31;4974810;28;20873;-58
2021/09/25 07:32:38;;;;;;;5.83;5.30;;;;;;;17.48;74.13;96480.72;4974440;28;20170;-55
2021/09/25 07:35:04;;;;;;;4.67;4.27;;;;;;;17.58;74.09;96472.72;4973260;28;20193;-57
2021/09/25 07:37:29;;;;;;;5.70;5.20;;;;;;;17.60;72.94;96473.25;4977136;28;20497;-58
2021/09/25 07:39:54;;;;;;;5.07;4.07;;;;;;;17.61;72.97;96480.94;4978924;28;20412;-57
2021/09/25 07:42:20;;;;;;;5.43;4.90;;;;;;;17.84;72.88;96482.28;4978807;28;20241;-54
2021/09/25 07:44:47;;;;;;;5.57;5.07;;;;;;;17.91;72.72;96485.47;4978096;28;20194;-54
2021/09/25 07:47:12;;;;;;;5.10;4.70;;;;;;;18.12;72.47;96485.16;4978615;28;20170;-54
2021/09/25 07:49:38;;;;;;;4.40;4.10;;;;;;;18.08;72.10;96481.44;4978430;28;20407;-54
2021/09/25 07:52:04;;;;;;;5.27;4.77;;;;;;;18.29;72.40;96484.84;4978368;28;20704;-59
2021/09/25 07:54:29;;;;;;;5.10;4.70;;;;;;;18.35;72.19;96487.19;4977924;28;20405;-58
2021/09/25 07:56:55;;;;;;;5.13;4.73;;;;;;;18.48;71.94;96480.53;4978482;28;20951;-58
2021/09/25 07:59:20;;;;;;;4.77;4.37;;;;;;;18.63;71.41;96485.00;4978367;28;20174;-58
2021/09/25 08:01:46;;;;;;;4.77;4.33;;;;;;;18.64;71.27;96481.28;4978289;28;20174;-54
2021/09/25 08:04:12;;;;;;;4.50;4.10;;;;;;;18.84;70.30;96476.63;4978015;28;20200;-54
2021/09/25 08:06:37;;;;;;;5.13;4.73;;;;;;;18.88;70.86;96474.25;4978289;28;20198;-54
2021/09/25 08:09:02;;;;;;;7.10;5.10;;;;;;;19.06;70.62;96476.28;4978237;28;20261;-54
2021/09/25 08:11:28;;;;;;;5.33;4.93;;;;;;;19.17;70.56;96478.56;4978080;28;20703;-59
2021/09/25 08:13:53;;;;;;;5.53;5.03;;;;;;;19.19;70.45;96473.78;4977653;28;20221;-54
2021/09/25 08:16:19;;;;;;;5.03;4.57;;;;;;;19.20;69.46;96474.56;4978047;28;20200;-58
2021/09/25 08:18:44;;;;;;;4.80;4.40;;;;;;;19.35;69.84;96469.94;4978097;28;20587;-58
2021/09/25 08:21:09;;;;;;;5.07;4.67;;;;;;;19.40;70.19;96477.91;4978246;28;20180;-58
2021/09/25 08:23:35;;;;;;;4.87;4.47;;;;;;;19.33;70.59;96477.44;4977598;28;20209;-54
2021/09/25 08:26:00;;;;;;;5.57;4.90;;;;;;;19.57;69.63;96472.19;4977811;28;20194;-54
2021/09/25 08:28:26;;;;;;;4.83;4.43;;;;;;;19.56;68.99;96472.47;4977803;28;20204;-58
2021/09/25 08:30:52;;;;;;;5.57;4.40;;;;;;;19.70;68.63;96478.72;4977857;28;20183;-58
2021/09/25 08:33:17;;;;;;;4.53;4.20;;;;;;;19.81;68.05;96477.56;4977504;28;20261;-54
2021/09/25 08:35:43;;;;;;;5.67;4.97;;;;;;;19.84;68.92;96479.69;4977682;28;20194;-59
2021/09/25 08:38:08;;;;;;;4.97;4.57;;;;;;;20.00;68.49;96478.47;4977600;28;20194;-54
2021/09/25 08:40:34;;;;;;;4.23;3.83;;;;;;;20.03;69.12;96462.69;4977647;28;20673;-54
2021/09/25 08:42:59;;;;;;;5.23;4.83;;;;;;;20.10;70.10;96465.81;4977239;28;20206;-55
2021/09/25 08:45:25;;;;;;;4.93;4.53;;;;;;;20.15;70.48;96468.44;4977450;28;20198;-58
2021/09/25 08:47:53;;;;;;;4.50;4.20;;;;;;;20.23;70.08;96467.03;4976949;28;20184;-55
2021/09/25 08:50:19;;;;;;;4.40;4.10;;;;;;;20.29;70.14;96469.38;4977222;28;20877;-54
2021/09/25 08:52:44;;;;;;;4.33;4.03;;;;;;;20.32;70.06;96463.47;4977158;28;20434;-55
2021/09/25 08:55:12;;;;;;;5.43;4.57;;;;;;;20.43;70.21;96464.16;4977512;28;20329;-54
2021/09/25 08:57:39;;;;;;;4.57;4.23;;;;;;;20.51;70.09;96455.50;4977265;28;20186;-54
2021/09/25 09:00:31;;;;;;;5.10;4.53;;;;;;;20.56;69.18;96458.13;4977281;28;20484;-58
2021/09/25 09:03:35;;;;;;;4.80;4.20;;;;;;;20.63;68.00;96463.09;4976923;28;20453;-58
2021/09/25 09:06:16;;;;;;;6.10;4.33;;;;;;;20.70;68.21;96463.53;4976720;28;20441;-58
2021/09/25 09:08:44;;;;;;;4.50;4.10;;;;;;;20.81;68.56;96462.34;4977252;28;20552;-58
2021/09/25 09:11:10;;;;;;;4.23;3.93;;;;;;;20.86;68.05;96464.94;4977124;28;20428;-54
2021/09/25 09:13:38;;;;;;;5.13;4.73;;;;;;;20.87;67.03;96461.97;4976670;28;20861;-55
2021/09/25 09:16:07;;;;;;;4.50;4.20;;;;;;;20.97;67.64;96461.03;4976959;28;20929;-55
2021/09/25 09:18:35;;;;;;;4.87;4.47;;;;;;;21.01;67.95;96467.44;4977038;28;20437;-58
2021/09/25 09:21:05;;;;;;;4.70;4.30;;;;;;;21.00;66.95;96465.84;4976918;28;20496;-58
2021/09/25 09:23:33;;;;;;;4.87;4.47;;;;;;;21.06;67.72;96462.81;4976532;28;20501;-55
2021/09/25 09:26:00;;;;;;;5.10;4.67;;;;;;;21.22;67.35;96464.19;4976670;28;20926;-58
2021/09/25 09:28:30;;;;;;;6.20;4.90;;;;;;;21.29;67.66;96456.59;4976857;28;20425;-54
2021/09/25 09:30:58;;;;;;;6.43;4.70;;;;;;;21.31;64.34;96462.44;4976880;28;20417;-57
2021/09/25 09:33:36;;;;;;;5.27;4.40;;;;;;;21.42;66.04;96455.03;4976205;28;20901;-55
2021/09/25 09:36:41;;;;;;;5.43;4.50;;;;;;;21.56;65.92;96455.88;4975233;28;20437;-58
2021/09/25 09:39:17;;;;;;;4.40;4.10;;;;;;;21.68;67.27;96466.13;4976454;28;20821;-55
2021/09/25 09:41:46;;;;;;;7.00;5.33;;;;;;;21.71;63.84;96463.66;4976596;28;20429;-58
2021/09/25 09:44:18;;;;;;;4.87;4.33;;;;;;;21.77;63.63;96461.69;4975891;28;20499;-55
2021/09/25 09:46:49;;;;;;;5.43;5.03;;;;;;;21.90;64.80;96450.28;4976238;28;20437;-55
2021/09/25 09:49:23;;;;;;;5.10;4.80;;;;;;;22.06;64.83;96449.69;4976301;28;20908;-55
2021/09/25 09:52:11;;;;;;;5.10;4.70;;;;;;;22.14;65.35;96446.31;4976402;28;20413;-55
2021/09/25 09:54:41;;;;;;;5.57;5.17;;;;;;;22.26;65.01;96448.53;4975814;28;20734;-58
2021/09/25 09:57:08;;;;;;;5.53;5.07;;;;;;;22.38;66.07;96454.97;4976255;28;20844;-58
2021/09/25 09:59:35;;;;;;;4.93;4.53;;;;;;;22.41;64.35;96446.31;4976076;28;21013;-55
2021/09/25 10:02:00;;;;;;;4.73;4.33;;;;;;;22.54;64.84;96442.06;4976157;28;20425;-59
2021/09/25 10:04:26;;;;;;;6.67;5.10;;;;;;;22.56;64.28;96444.50;4975491;28;20825;-55
2021/09/25 10:06:52;;;;;;;6.30;4.83;;;;;;;22.64;64.00;96433.84;4976149;28;20174;-58
2021/09/25 10:09:20;;;;;;;4.47;3.90;;;;;;;22.81;64.09;96434.00;4976027;28;20485;-55
2021/09/25 10:11:49;;;;;;;5.63;5.10;;;;;;;22.90;62.94;96432.19;4975896;28;20178;-58
2021/09/25 10:14:18;;;;;;;5.00;4.60;;;;;;;22.92;60.93;96431.91;4975614;28;20421;-55
2021/09/25 10:16:45;;;;;;;5.83;5.33;;;;;;;22.92;60.35;96432.69;4975807;28;20434;-55
2021/09/25 10:19:11;;;;;;;5.60;4.33;;;;;;;22.97;61.29;96437.94;4975838;28;20428;-55
2021/09/25 10:21:37;;;;;;;5.50;5.10;;;;;;;23.09;60.15;96434.72;4975830;28;20436;-58
2021/09/25 10:24:08;;;;;;;5.33;4.93;;;;;;;23.24;60.48;96426.34;4975455;28;20956;-58
2021/09/25 10:26:35;;;;;;;5.63;5.13;;;;;;;23.22;59.70;96425.84;4975544;28;20204;-55
2021/09/25 10:29:05;;;;;;;5.20;4.90;;;;;;;23.35;59.53;96428.50;4975655;28;20420;-58
2021/09/25 10:31:32;;;;;;;5.50;5.10;;;;;;;23.44;61.73;96420.53;4975616;28;20414;-58
2021/09/25 10:34:11;;;;;;;5.60;5.10;;;;;;;23.53;60.93;96426.75;4975016;28;20967;-58
2021/09/25 10:36:42;;;;;;;5.87;5.30;;;;;;;23.48;60.00;96418.78;4975431;28;20429;-58
2021/09/25 10:39:25;;;;;;;5.47;5.07;;;;;;;23.58;60.13;96429.28;4975304;28;20417;-58
2021/09/25 10:42:02;;;;;;;6.13;5.53;;;;;;;23.70;60.60;96421.47;4975452;28;20845;-58
2021/09/25 10:44:34;;;;;;;5.40;5.00;;;;;;;23.57;59.65;96416.97;4974788;28;20440;-58
2021/09/25 10:47:05;;;;;;;4.93;4.50;;;;;;;23.70;59.71;96413.41;4975226;28;20492;-55
2021/09/25 10:49:58;;;;;;;5.13;4.73;;;;;;;23.69;60.47;96417.22;4975238;28;20406;-58
2021/09/25 10:52:40;;;;;;;5.93;5.53;;;;;;;23.70;59.37;96410.72;4974231;28;20425;-58
2021/09/25 10:55:18;;;;;;;4.80;4.50;;;;;;;23.82;59.82;96400.22;4975151;28;20441;-55
2021/09/25 10:58:20;;;;;;;6.83;4.97;;;;;;;23.90;59.07;96401.34;4975014;28;20426;-55
2021/09/25 11:00:48;;;;;;;5.47;4.97;;;;;;;23.83;58.43;96401.00;4974979;28;20503;-58
2021/09/25 11:06:39;;;;;;;5.10;4.47;;;;;;;24.12;58.27;96404.81;4974931;28;20861;-58
2021/09/25 11:09:14;;;;;;;5.27;4.80;;;;;;;24.16;58.51;96405.78;4975013;28;20417;-58
2021/09/25 11:11:46;;;;;;;4.80;4.40;;;;;;;24.46;58.96;96396.84;4975000;28;20409;-58
2021/09/25 11:14:24;;;;;;;5.70;5.20;;;;;;;24.57;57.99;96400.03;4974622;28;20394;-58
2021/09/25 11:16:57;;;;;;;4.70;4.40;;;;;;;24.75;57.41;96396.31;4974672;28;20764;-58
2021/09/25 11:19:25;;;;;;;5.30;4.80;;;;;;;24.95;59.11;96389.50;4974872;28;20413;-58
2021/09/25 11:22:05;;;;;;;4.97;4.60;;;;;;;24.87;55.53;96393.81;4974874;28;20421;-55
2021/09/25 11:24:37;;;;;;;5.00;4.60;;;;;;;25.01;57.28;96386.38;4974470;28;20535;-55
2021/09/25 11:27:08;;;;;;;5.10;4.60;;;;;;;24.99;55.92;96402.03;4974900;28;20437;-60
2021/09/25 11:29:33;;;;;;;5.17;4.80;;;;;;;25.24;55.35;96390.47;4975011;28;20488;-55
2021/09/25 11:32:07;;;;;;;4.67;4.27;;;;;;;25.36;56.32;96401.34;4974779;28;20497;-56
2021/09/25 11:34:35;;;;;;;4.90;4.47;;;;;;;25.36;55.03;96395.22;4974256;28;20265;-58